Decoded Metar for LDPL (PULA in CROATIA) (IATA:PUY) | Meteo·Mobile Aviation Weather
aviador You're here:

LDPL Decoded Metar

PULA in CROATIA
Report Time2019-03-23 08:30:00
UTC Time2019-03-23 09:04:30
Flight Rules vfr VFR
Wind070° at 15 kt
W.Decomp.*RWY 09: 13.8 kt HW 5.9 kt LCW
W.Rank070° ranks 1
Current wind is above 070° avg. (9.6)
Visibility9999 m
Phenomena:N/A
Clouds:N/A
Expected CloudBase > 7,200 ft AGL from Temp-Dew spread
CeilingNone
Temp18°C (ISA +3)
Dew Point00°C (30% RH)
AAT10.6°C
QNH1024 hPa
Density Alt325 ft
Elevation207 ft
Report Wrong Elevation
Raw Report
LDPL 230830Z 07015KT CAVOK 18/M00 Q1024 NOSIG=

Extra information for LDPL:More info

Metar Taf Metar & Taf Last 4 Metars F.Rules Stats Wind Profile Meteogram Temp Stats Airport Information Weather charts Add Link Nearby VenuesMetar ALERT Operation Metar Decoded Social comments